メインページ
METAR-TAF:

METAR-TAF

空港 :

イカルイト, ヌナブト準州, カナダ

イカルイト空港

緯度: 63-45N, 経度: 068-33W, 海抜: 34m

現時点の気象観測

当レポートは27分前の16:00(UTC)に作成
南東の風 9kt
気温 -2°C
湿度 93%
気圧 1004 hPa
視程: 2.4km
(弱い) 着氷性, 霧雨, 靄

METAR: CYFB 221600Z 13009KT 1 1/2SM -FZDZ BR VV005 M02/M03 A2964 RMK FG8 SLP040

時間: 11:27 (16:27 UTC)

予報

当レポートは1時間17分前の15:10(UTC)に作成
予報は22日の 15時(UTC)から 23日の 12時(UTC)まで有効
南東の風 12kt
視程: 10km
高度500ftの雲は散在している
高度1200ftの曇り
22日の 15時(UTC)から 22日の 18時(UTC)まで一時的に
視程: 3.2km
高度500ftの曇り
(弱い) 着氷性, 霧雨, 小雪, 靄
22日の 1800時(UTC)から
南東の風 15kt
視程: 6.4km
高度2000ftの曇り
小雪
22日の 18時(UTC)から 22日の 22時(UTC)まで一時的に
視程: 1.6km
高度800ftの
弱いにわか雪, 高い地吹雪
22日の 19時(UTC)から 22日の 21時(UTC)まで徐々に
南東の風 20kt、最大30ktの突風を伴う
22日の 2200時(UTC)から
南/南東の風 20kt、最大30ktの突風を伴う
高度800ftの雲は散在している
高度1500ftの曇り
小雪
22日の 22時(UTC)から 23日の 06時(UTC)まで一時的に
視程: 10km
高度1500ftの雲は散在している
高度3000ftの千切れ雲あり
小雪
23日の 0600時(UTC)から
南/南東の風 10kt
視程: 10km
高度2000ftの千切れ雲あり
小雪

TAF: CYFB 221510Z 2215/2312 13012KT P6SM SCT005 OVC012 TEMPO 2215/2218 2SM -FZDZ -SN BR OVC005 FM221800 14015KT 4SM -SN OVC020 TEMPO 2218/2222 1SM -SHSN BLSN VV008 BECMG 2219/2221 14020G30KT FM222200 15020G30KT 21/2SM -SN SCT008 OVC015 TEMPO 2222/2306 P6SM -SN SCT015 BKN030 FM230600 15010KT P6SM -SN BKN020 RMK NXT FCST BY 221800Z

4,000以上の空港の気象観測と天気予報(METAR報とTAF報)

利用可能な観測所は地図上に黄色い丸と赤い丸で示す。

丸の上にカーソルを重ねると観測所名を参照できる。

次にクリックすると気象観測と天気予報を参照できる。

マップの切り替え:黒色「×」印の緑ボタンをクリックして拡大、「-」印の緑ボタンをクリックして縮小、緑色の三角印をクリックして隣りの地図に切り替え


METAR-TAF: